createdAt,value
2023-04-02T00:00:21.136Z,99.90
2023-04-02T00:03:00.088Z,99.90
2023-04-02T00:05:50.388Z,99.90
2023-04-02T00:08:39.066Z,99.90
2023-04-02T00:11:09.725Z,99.90
2023-04-02T00:13:42.107Z,99.90
2023-04-02T00:16:14.800Z,99.90
2023-04-02T00:18:48.500Z,99.90
2023-04-02T00:21:24.905Z,99.90
2023-04-02T00:23:57.096Z,99.90
2023-04-02T00:26:32.073Z,99.90
2023-04-02T00:29:02.503Z,99.90
2023-04-02T00:31:32.258Z,99.90
2023-04-02T00:34:02.322Z,99.90
2023-04-02T00:36:34.445Z,99.90
2023-04-02T00:39:09.857Z,99.90
2023-04-02T00:41:39.510Z,99.90
2023-04-02T00:44:08.093Z,99.90
2023-04-02T00:46:50.065Z,99.90
2023-04-02T00:49:25.143Z,99.90
2023-04-02T00:51:58.040Z,99.90
2023-04-02T00:54:34.787Z,99.90
2023-04-02T00:57:03.768Z,99.90
2023-04-02T00:59:35.969Z,99.90
2023-04-02T01:02:26.826Z,99.90
2023-04-02T01:04:57.174Z,99.90
2023-04-02T01:07:39.599Z,99.90
2023-04-02T01:10:35.438Z,99.90
2023-04-02T01:13:15.262Z,99.90
2023-04-02T01:15:47.263Z,99.90
2023-04-02T01:18:31.494Z,99.90
2023-04-02T01:21:11.095Z,99.90
2023-04-02T01:23:52.905Z,99.90
2023-04-02T01:26:28.135Z,99.90
2023-04-02T01:29:05.836Z,99.90
2023-04-02T01:31:35.705Z,99.90
2023-04-02T01:34:07.516Z,99.90
2023-04-02T01:36:40.942Z,99.90
2023-04-02T01:39:20.518Z,99.90
2023-04-02T01:41:56.683Z,99.90
2023-04-02T01:44:31.623Z,99.90
2023-04-02T01:47:06.537Z,99.90
2023-04-02T01:49:35.270Z,99.90
2023-04-02T01:52:04.043Z,99.90
2023-04-02T01:54:33.720Z,99.90
2023-04-02T01:57:03.309Z,99.90
2023-04-02T01:59:34.543Z,99.90
2023-04-02T02:02:05.578Z,99.90
2023-04-02T02:04:35.895Z,99.90
2023-04-02T02:07:05.575Z,99.90
2023-04-02T02:09:36.876Z,99.90
2023-04-02T02:12:07.081Z,99.90
2023-04-02T02:14:39.896Z,99.90
2023-04-02T02:17:13.695Z,99.90
2023-04-02T02:19:46.317Z,99.90
2023-04-02T02:22:22.062Z,99.90
2023-04-02T02:24:52.586Z,99.90
2023-04-02T02:27:47.616Z,99.90
2023-04-02T02:30:22.016Z,99.90
2023-04-02T02:32:57.654Z,99.90
2023-04-02T02:35:31.469Z,99.90
2023-04-02T02:38:08.560Z,99.90
2023-04-02T02:40:43.073Z,99.90
2023-04-02T02:43:15.521Z,99.90
2023-04-02T02:45:49.279Z,99.90
2023-04-02T02:48:22.481Z,99.90
2023-04-02T02:50:52.908Z,99.90
2023-04-02T02:53:24.248Z,99.90
2023-04-02T02:55:56.917Z,99.90
2023-04-02T02:58:28.335Z,99.90
2023-04-02T03:00:58.647Z,99.90
2023-04-02T03:03:30.536Z,99.90
2023-04-02T03:06:03.137Z,99.90
2023-04-02T03:08:37.110Z,99.90
2023-04-02T03:11:12.044Z,99.90
2023-04-02T03:13:46.929Z,99.90
2023-04-02T03:16:22.396Z,99.90
2023-04-02T03:18:56.394Z,99.90
2023-04-02T03:21:33.421Z,99.90
2023-04-02T03:24:05.033Z,99.90
2023-04-02T03:26:38.562Z,99.90
2023-04-02T03:29:15.959Z,99.90
2023-04-02T03:31:49.425Z,99.90
2023-04-02T03:34:23.868Z,99.90
2023-04-02T03:36:58.283Z,99.90
2023-04-02T03:39:35.054Z,99.90
2023-04-02T03:42:10.139Z,99.90
2023-04-02T03:44:47.380Z,99.90
2023-04-02T03:47:32.871Z,99.90
2023-04-02T03:50:09.840Z,99.90
2023-04-02T03:52:40.118Z,99.90
2023-04-02T03:55:16.729Z,99.90
2023-04-02T03:57:54.200Z,99.90
2023-04-02T04:00:34.476Z,99.90
2023-04-02T04:03:12.838Z,99.90
2023-04-02T04:05:50.276Z,99.90
2023-04-02T04:08:21.079Z,99.90
2023-04-02T04:10:55.332Z,99.90
2023-04-02T04:13:32.835Z,99.90
2023-04-02T04:16:06.122Z,99.90
2023-04-02T04:18:46.794Z,99.90
2023-04-02T04:21:37.441Z,99.90
2023-04-02T04:24:08.008Z,99.90
2023-04-02T04:26:43.965Z,99.90
2023-04-02T04:29:30.877Z,99.90
2023-04-02T04:32:14.729Z,99.90
2023-04-02T04:34:53.784Z,99.90
2023-04-02T04:37:29.315Z,99.90
2023-04-02T04:40:01.043Z,99.90
2023-04-02T04:42:31.344Z,99.90
2023-04-02T04:45:05.291Z,99.90
2023-04-02T04:47:39.960Z,99.90
2023-04-02T04:50:16.397Z,99.90
2023-04-02T04:52:45.549Z,99.90
2023-04-02T04:55:30.840Z,99.90
2023-04-02T04:58:05.129Z,99.90
2023-04-02T05:00:45.212Z,99.90
2023-04-02T05:03:22.069Z,99.90
2023-04-02T05:05:52.847Z,99.90
2023-04-02T05:08:27.219Z,99.90
2023-04-02T05:10:59.605Z,99.90
2023-04-02T05:13:35.569Z,99.90
2023-04-02T05:16:13.207Z,99.90
2023-04-02T05:18:45.126Z,99.90
2023-04-02T05:21:21.572Z,99.90
2023-04-02T05:23:56.011Z,99.90
2023-04-02T05:26:30.018Z,99.90
2023-04-02T05:29:04.544Z,99.90
2023-04-02T05:31:41.573Z,99.90
2023-04-02T05:34:12.702Z,99.90
2023-04-02T05:36:46.760Z,99.90
2023-04-02T05:39:23.583Z,99.90
2023-04-02T05:42:01.117Z,99.90
2023-04-02T05:44:32.495Z,99.90
2023-04-02T05:47:04.663Z,99.90
2023-04-02T05:49:42.560Z,99.90
2023-04-02T05:52:16.980Z,99.90
2023-04-02T05:54:50.583Z,99.90
2023-04-02T05:57:35.816Z,99.90
2023-04-02T06:00:20.941Z,99.90
2023-04-02T06:02:55.801Z,99.90
2023-04-02T06:05:29.357Z,99.90
2023-04-02T06:08:04.952Z,99.90
2023-04-02T06:10:37.457Z,99.90
2023-04-02T06:13:13.230Z,99.90
2023-04-02T06:15:45.543Z,99.90
2023-04-02T06:18:18.993Z,99.90
2023-04-02T06:20:48.246Z,99.90
2023-04-02T06:23:23.885Z,99.90
2023-04-02T06:25:59.391Z,99.90
2023-04-02T06:28:32.676Z,99.90
2023-04-02T06:31:07.858Z,99.90
2023-04-02T06:33:36.701Z,99.90
2023-04-02T06:36:06.971Z,99.90
2023-04-02T06:38:39.150Z,99.90
2023-04-02T06:41:14.514Z,99.90
2023-04-02T06:43:46.617Z,99.90
2023-04-02T06:46:20.732Z,99.90
2023-04-02T06:48:51.612Z,99.90
2023-04-02T06:51:23.999Z,99.90
2023-04-02T06:53:53.946Z,99.90
2023-04-02T06:56:31.953Z,99.90
2023-04-02T06:59:00.436Z,99.90
2023-04-02T07:01:32.121Z,99.90
2023-04-02T07:04:01.400Z,99.90
2023-04-02T07:06:29.958Z,99.90
2023-04-02T07:08:59.944Z,99.90
2023-04-02T07:11:28.354Z,99.90
2023-04-02T07:13:56.628Z,99.90
2023-04-02T07:16:27.619Z,99.90
2023-04-02T07:18:58.701Z,99.90
2023-04-02T07:21:28.083Z,99.90
2023-04-02T07:23:56.743Z,99.90
2023-04-02T07:26:28.748Z,99.90
2023-04-02T07:28:57.859Z,99.90
2023-04-02T07:31:28.049Z,99.90
2023-04-02T07:34:00.308Z,99.90
2023-04-02T07:36:30.755Z,99.90
2023-04-02T07:38:59.533Z,99.90
2023-04-02T07:41:29.462Z,99.90
2023-04-02T07:43:58.058Z,99.90
2023-04-02T07:46:26.842Z,99.90
2023-04-02T07:48:55.509Z,99.90
2023-04-02T07:51:26.882Z,99.90
2023-04-02T07:53:56.396Z,99.90
2023-04-02T07:56:27.620Z,99.90
2023-04-02T07:58:57.812Z,99.90
2023-04-02T08:01:28.060Z,99.90
2023-04-02T08:03:58.218Z,99.90
2023-04-02T08:06:26.959Z,99.90
2023-04-02T08:08:56.374Z,99.90
2023-04-02T08:11:25.086Z,99.90
2023-04-02T08:13:53.718Z,99.90
2023-04-02T08:16:25.809Z,99.90
2023-04-02T08:18:54.337Z,99.90
2023-04-02T08:21:27.680Z,98.80
2023-04-02T08:23:56.282Z,97.00
2023-04-02T08:26:26.675Z,93.10
2023-04-02T08:28:55.100Z,92.00
2023-04-02T08:31:25.365Z,88.90
2023-04-02T08:33:54.235Z,84.00
2023-04-02T08:36:28.870Z,75.10
2023-04-02T08:38:57.631Z,73.90
2023-04-02T08:41:33.347Z,76.50
2023-04-02T08:44:13.421Z,66.10
2023-04-02T08:46:50.692Z,62.20
2023-04-02T08:49:29.765Z,58.30
2023-04-02T08:52:01.163Z,59.90
2023-04-02T08:54:32.492Z,60.10
2023-04-02T08:57:07.013Z,54.70
2023-04-02T08:59:40.178Z,57.30
2023-04-02T09:02:28.352Z,58.70
2023-04-02T09:05:00.015Z,63.40
2023-04-02T09:07:29.553Z,68.20
2023-04-02T09:09:58.733Z,61.10
2023-04-02T09:12:30.710Z,59.70
2023-04-02T09:15:12.980Z,62.00
2023-04-02T09:17:53.521Z,64.40
2023-04-02T09:20:26.983Z,58.30
2023-04-02T09:22:56.654Z,61.80
2023-04-02T09:25:29.888Z,63.60
2023-04-02T09:28:02.320Z,65.00
2023-04-02T09:30:44.593Z,67.80
2023-04-02T09:33:14.659Z,71.00
2023-04-02T09:35:56.536Z,74.00
2023-04-02T09:38:30.910Z,74.30
2023-04-02T09:41:02.504Z,74.80
2023-04-02T09:43:32.492Z,76.40
2023-04-02T09:46:02.999Z,76.60
2023-04-02T09:48:35.629Z,79.20
2023-04-02T09:51:13.637Z,78.90
2023-04-02T09:53:43.999Z,80.30
2023-04-02T09:56:16.133Z,81.50
2023-04-02T09:58:45.970Z,83.70
2023-04-02T10:01:30.502Z,86.20
2023-04-02T10:04:00.941Z,87.50
2023-04-02T10:06:31.848Z,89.20
2023-04-02T10:09:00.474Z,91.20
2023-04-02T10:11:43.790Z,91.20
2023-04-02T10:14:20.271Z,91.30
2023-04-02T10:16:53.430Z,92.00
2023-04-02T10:19:31.073Z,93.00
2023-04-02T10:22:02.558Z,92.90
2023-04-02T10:24:30.727Z,92.30
2023-04-02T10:27:06.824Z,92.40
2023-04-02T10:30:02.497Z,92.70
2023-04-02T10:32:37.388Z,93.60
2023-04-02T10:35:17.022Z,92.00
2023-04-02T10:38:04.001Z,91.90
2023-04-02T10:40:36.622Z,91.10
2023-04-02T10:43:47.472Z,90.40
2023-04-02T10:46:25.572Z,87.40
2023-04-02T10:49:05.730Z,86.80
2023-04-02T10:51:44.705Z,84.50
2023-04-02T10:54:28.109Z,80.60
2023-04-02T10:57:02.644Z,79.80
2023-04-02T10:59:35.978Z,79.30
2023-04-02T11:02:15.309Z,75.30
2023-04-02T11:04:47.497Z,71.60
2023-04-02T11:07:23.932Z,73.50
2023-04-02T11:09:56.540Z,70.90
2023-04-02T11:12:31.416Z,69.70
2023-04-02T11:15:02.709Z,68.90
2023-04-02T11:17:30.782Z,70.90
2023-04-02T11:20:43.534Z,73.00
2023-04-02T11:23:15.352Z,74.80
2023-04-02T11:25:44.360Z,77.20
2023-04-02T11:28:26.345Z,78.90
2023-04-02T11:30:55.425Z,80.80
2023-04-02T11:33:45.014Z,85.40
2023-04-02T11:36:48.228Z,81.50
2023-04-02T11:39:51.610Z,77.80
2023-04-02T11:42:29.565Z,73.70
2023-04-02T11:45:02.065Z,70.80
2023-04-02T11:47:32.449Z,68.90
2023-04-02T11:50:10.631Z,64.70
2023-04-02T11:52:52.168Z,62.20
2023-04-02T11:55:27.530Z,63.90
2023-04-02T11:58:30.535Z,61.50
2023-04-02T12:01:38.616Z,61.90
2023-04-02T12:04:33.138Z,62.50
2023-04-02T12:07:18.811Z,60.90
2023-04-02T12:09:52.426Z,62.60
2023-04-02T12:12:28.388Z,62.10
2023-04-02T12:14:57.973Z,60.40
2023-04-02T12:17:31.992Z,58.80
2023-04-02T12:20:05.105Z,57.90
2023-04-02T12:22:39.388Z,58.70
2023-04-02T12:25:23.020Z,58.40
2023-04-02T12:28:08.613Z,56.60
2023-04-02T12:30:38.022Z,56.30
2023-04-02T12:33:30.579Z,55.50
2023-04-02T12:36:02.231Z,55.00
2023-04-02T12:38:34.600Z,55.30
2023-04-02T12:41:06.725Z,55.40
2023-04-02T12:43:38.206Z,54.50
2023-04-02T12:46:11.936Z,53.30
2023-04-02T12:48:40.998Z,53.60
2023-04-02T12:51:11.600Z,54.10
2023-04-02T12:53:42.984Z,53.60
2023-04-02T12:56:21.807Z,54.40
2023-04-02T12:58:59.386Z,53.00
2023-04-02T13:01:32.062Z,53.00
2023-04-02T13:04:06.490Z,52.40
2023-04-02T13:06:36.531Z,53.80
2023-04-02T13:09:07.650Z,53.10
2023-04-02T13:11:38.401Z,53.50
2023-04-02T13:14:09.306Z,52.10
2023-04-02T13:16:38.250Z,52.40
2023-04-02T13:19:31.951Z,52.30
2023-04-02T13:22:02.504Z,51.60
2023-04-02T13:24:33.251Z,52.10
2023-04-02T13:27:04.013Z,52.70
2023-04-02T13:29:36.874Z,52.80
2023-04-02T13:32:09.236Z,51.90
2023-04-02T13:34:38.445Z,50.60
2023-04-02T13:37:07.946Z,51.40
2023-04-02T13:39:36.935Z,49.80
2023-04-02T13:42:07.968Z,51.50
2023-04-02T13:44:38.602Z,51.10
2023-04-02T13:47:11.258Z,49.80
2023-04-02T13:49:40.067Z,51.40
2023-04-02T13:52:16.028Z,51.40
2023-04-02T13:54:50.442Z,51.70
2023-04-02T13:57:19.513Z,52.10
2023-04-02T13:59:49.656Z,50.00
2023-04-02T14:02:21.885Z,49.70
2023-04-02T14:04:54.319Z,48.90
2023-04-02T14:07:41.216Z,49.80
2023-04-02T14:10:22.207Z,50.30
2023-04-02T14:13:03.166Z,48.50
2023-04-02T14:15:47.717Z,47.50
2023-04-02T14:18:37.799Z,46.60
2023-04-02T14:21:16.361Z,48.90
2023-04-02T14:24:00.262Z,47.40
2023-04-02T14:26:39.870Z,47.70
2023-04-02T14:29:16.661Z,48.30
2023-04-02T14:31:51.814Z,49.00
2023-04-02T14:34:33.983Z,49.20
2023-04-02T14:37:13.788Z,48.90
2023-04-02T14:39:50.256Z,47.70
2023-04-02T14:42:23.402Z,45.70
2023-04-02T14:44:59.770Z,45.70
2023-04-02T14:47:35.273Z,48.40
2023-04-02T14:50:13.754Z,47.20
2023-04-02T14:52:47.464Z,46.70
2023-04-02T14:55:27.028Z,46.90
2023-04-02T14:57:57.817Z,47.20
2023-04-02T15:00:30.088Z,48.50
2023-04-02T15:03:07.491Z,47.50
2023-04-02T15:05:43.121Z,46.80
2023-04-02T15:08:20.577Z,47.20
2023-04-02T15:11:08.219Z,47.40
2023-04-02T15:13:40.001Z,46.90
2023-04-02T15:16:19.795Z,48.50
2023-04-02T15:18:52.952Z,49.10
2023-04-02T15:21:49.733Z,50.70
2023-04-02T15:24:33.617Z,52.60
2023-04-02T15:27:24.028Z,53.60
2023-04-02T15:30:02.267Z,54.70
2023-04-02T15:32:39.029Z,55.60
2023-04-02T15:35:24.675Z,57.50
2023-04-02T15:38:01.519Z,58.70
2023-04-02T15:40:56.152Z,58.60
2023-04-02T15:43:30.890Z,59.40
2023-04-02T15:46:13.847Z,60.30
2023-04-02T15:49:05.035Z,61.70
2023-04-02T15:52:01.564Z,62.50
2023-04-02T15:54:47.350Z,63.40
2023-04-02T15:57:26.227Z,64.00
2023-04-02T16:00:15.519Z,64.00
2023-04-02T16:03:13.969Z,65.20
2023-04-02T16:05:47.514Z,66.00
2023-04-02T16:08:42.297Z,66.80
2023-04-02T16:11:13.590Z,68.80
2023-04-02T16:13:43.792Z,68.50
2023-04-02T16:16:20.717Z,68.40
2023-04-02T16:19:00.300Z,67.70
2023-04-02T16:21:35.003Z,67.90
2023-04-02T16:24:07.487Z,68.20
2023-04-02T16:26:52.262Z,68.60
2023-04-02T16:29:47.403Z,68.40
2023-04-02T16:32:43.373Z,68.10
2023-04-02T16:35:41.695Z,68.40
2023-04-02T16:38:22.744Z,68.70
2023-04-02T16:41:08.784Z,68.80
2023-04-02T16:43:45.951Z,68.80
2023-04-02T16:46:38.376Z,71.00
2023-04-02T16:49:21.762Z,71.60
2023-04-02T16:52:00.928Z,71.60
2023-04-02T16:54:36.776Z,72.10
2023-04-02T16:57:25.599Z,73.70
2023-04-02T17:00:01.548Z,75.80
2023-04-02T17:02:43.525Z,79.30
2023-04-02T17:05:23.540Z,78.10
2023-04-02T17:08:02.346Z,80.90
2023-04-02T17:10:37.084Z,82.00
2023-04-02T17:13:25.768Z,82.40
2023-04-02T17:16:03.409Z,86.20
2023-04-02T17:18:34.885Z,88.80
2023-04-02T17:21:06.940Z,90.60
2023-04-02T17:23:55.849Z,90.80
2023-04-02T17:26:28.816Z,92.00
2023-04-02T17:29:02.360Z,93.60
2023-04-02T17:31:36.048Z,94.80
2023-04-02T17:34:13.823Z,95.70
2023-04-02T17:36:53.235Z,97.80
2023-04-02T17:39:28.826Z,98.60
2023-04-02T17:42:06.896Z,99.90
2023-04-02T17:44:58.948Z,99.90
2023-04-02T17:47:37.191Z,99.90
2023-04-02T17:50:30.615Z,99.90
2023-04-02T17:53:07.440Z,99.90
2023-04-02T17:55:46.825Z,99.90
2023-04-02T17:58:31.245Z,99.90
2023-04-02T18:01:08.556Z,99.90
2023-04-02T18:03:51.867Z,99.90
2023-04-02T18:06:24.141Z,99.90
2023-04-02T18:09:08.605Z,99.90
2023-04-02T18:11:49.658Z,99.90
2023-04-02T18:14:33.883Z,99.90
2023-04-02T18:17:12.584Z,99.90
2023-04-02T18:19:50.141Z,99.90
2023-04-02T18:22:30.629Z,99.90
2023-04-02T18:25:20.580Z,99.90
2023-04-02T18:28:12.227Z,99.90
2023-04-02T18:30:49.939Z,99.90
2023-04-02T18:33:54.731Z,99.90
2023-04-02T18:36:30.696Z,99.90
2023-04-02T18:39:07.198Z,99.90
2023-04-02T18:41:56.621Z,99.90
2023-04-02T18:44:42.652Z,99.90
2023-04-02T18:47:25.317Z,99.90
2023-04-02T18:50:18.437Z,99.90
2023-04-02T18:52:58.165Z,99.90
2023-04-02T18:55:32.664Z,99.90
2023-04-02T18:58:08.396Z,99.90
2023-04-02T19:00:42.248Z,99.90
2023-04-02T19:03:19.431Z,99.90
2023-04-02T19:05:54.726Z,99.90
2023-04-02T19:08:36.320Z,99.90
2023-04-02T19:11:09.406Z,99.90
2023-04-02T19:13:40.341Z,99.90
2023-04-02T19:16:50.701Z,99.90
2023-04-02T19:19:23.141Z,99.90
2023-04-02T19:22:11.197Z,99.90
2023-04-02T19:25:17.624Z,99.90
2023-04-02T19:28:04.498Z,99.90
2023-04-02T19:31:17.937Z,99.90
2023-04-02T19:33:51.935Z,99.90
2023-04-02T19:36:41.662Z,99.90
2023-04-02T19:39:47.494Z,99.90
2023-04-02T19:42:32.382Z,99.90
2023-04-02T19:45:01.556Z,99.90
2023-04-02T19:47:31.746Z,99.90
2023-04-02T19:50:02.207Z,99.90
2023-04-02T19:52:32.417Z,99.90
2023-04-02T19:55:03.033Z,99.90
2023-04-02T19:57:33.655Z,99.90
2023-04-02T20:00:03.393Z,99.90
2023-04-02T20:02:32.441Z,99.90
2023-04-02T20:05:02.633Z,99.90
2023-04-02T20:07:34.238Z,99.90
2023-04-02T20:10:02.917Z,99.90
2023-04-02T20:12:35.783Z,99.90
2023-04-02T20:15:06.394Z,99.90
2023-04-02T20:17:35.213Z,99.90
2023-04-02T20:20:05.241Z,99.90
2023-04-02T20:22:34.549Z,99.90
2023-04-02T20:25:04.240Z,99.90
2023-04-02T20:27:35.170Z,99.90
2023-04-02T20:30:04.909Z,99.90
2023-04-02T20:32:37.750Z,99.90
2023-04-02T20:35:07.951Z,99.90
2023-04-02T20:37:36.653Z,99.90
2023-04-02T20:40:06.862Z,99.90
2023-04-02T20:42:39.680Z,99.90
2023-04-02T20:45:10.113Z,99.90
2023-04-02T20:47:39.986Z,99.90
2023-04-02T20:50:09.647Z,99.90
2023-04-02T20:52:39.671Z,99.90
2023-04-02T20:55:11.837Z,99.90
2023-04-02T20:57:42.699Z,99.90
2023-04-02T21:00:20.540Z,99.90
2023-04-02T21:02:49.693Z,99.90
2023-04-02T21:05:20.112Z,99.90
2023-04-02T21:07:49.814Z,99.90
2023-04-02T21:10:21.123Z,99.90
2023-04-02T21:12:54.135Z,99.90
2023-04-02T21:15:25.075Z,99.90
2023-04-02T21:17:54.290Z,99.90
2023-04-02T21:20:23.044Z,99.90
2023-04-02T21:22:52.042Z,99.90
2023-04-02T21:25:20.802Z,99.90
2023-04-02T21:27:52.065Z,99.90
2023-04-02T21:30:20.747Z,99.90
2023-04-02T21:32:50.489Z,99.90
2023-04-02T21:35:19.458Z,99.90
2023-04-02T21:37:48.233Z,99.90
2023-04-02T21:40:17.031Z,99.90
2023-04-02T21:42:46.431Z,99.90
2023-04-02T21:45:16.995Z,99.90
2023-04-02T21:47:45.665Z,99.90
2023-04-02T21:50:14.444Z,99.90
2023-04-02T21:52:43.137Z,99.90
2023-04-02T21:55:11.909Z,99.90
2023-04-02T21:57:40.574Z,99.90
2023-04-02T22:00:12.752Z,99.90
2023-04-02T22:02:43.004Z,99.90
2023-04-02T22:05:11.858Z,99.90
2023-04-02T22:07:43.382Z,99.90
2023-04-02T22:10:12.207Z,99.90
2023-04-02T22:12:40.769Z,99.90
2023-04-02T22:15:10.443Z,99.90
2023-04-02T22:17:39.423Z,99.90
2023-04-02T22:20:10.913Z,99.90
2023-04-02T22:22:39.423Z,99.90
2023-04-02T22:25:09.143Z,99.90
2023-04-02T22:27:37.901Z,99.90
2023-04-02T22:30:07.810Z,99.90
2023-04-02T22:32:37.805Z,99.90
2023-04-02T22:35:07.252Z,99.90
2023-04-02T22:37:37.444Z,99.90
2023-04-02T22:40:07.060Z,99.90
2023-04-02T22:42:35.819Z,99.90
2023-04-02T22:45:05.147Z,99.90
2023-04-02T22:47:33.912Z,99.90
2023-04-02T22:50:02.644Z,99.90
2023-04-02T22:52:31.464Z,99.90
2023-04-02T22:55:04.089Z,99.90
2023-04-02T22:57:32.626Z,99.90
2023-04-02T23:00:01.252Z,99.90
2023-04-02T23:02:29.944Z,99.90
2023-04-02T23:05:00.417Z,99.90
2023-04-02T23:07:28.933Z,99.90
2023-04-02T23:09:59.634Z,99.90
2023-04-02T23:12:29.914Z,99.90
2023-04-02T23:14:58.366Z,99.90
2023-04-02T23:17:27.021Z,99.90
2023-04-02T23:19:55.634Z,99.90
2023-04-02T23:22:27.494Z,99.90
2023-04-02T23:24:56.656Z,99.90
2023-04-02T23:27:25.874Z,99.90
2023-04-02T23:29:56.441Z,99.90
2023-04-02T23:32:25.485Z,99.90
2023-04-02T23:34:54.471Z,99.90
2023-04-02T23:37:23.324Z,99.90
2023-04-02T23:39:51.911Z,99.90
2023-04-02T23:42:20.601Z,99.90
2023-04-02T23:44:49.296Z,99.90
2023-04-02T23:47:19.510Z,99.90
2023-04-02T23:49:51.278Z,99.90
2023-04-02T23:52:19.695Z,99.90
2023-04-02T23:54:48.409Z,99.90
2023-04-02T23:57:17.531Z,99.90
2023-04-02T23:59:46.099Z,99.90
